sensor_id;sensor_type;location;lat;lon;timestamp;P1;durP1;ratioP1;P2;durP2;ratioP2
10458;SDS011;5277;48.722;8.736;2023-07-24T00:01:03;8.40;;;5.32;;
10458;SDS011;5277;48.722;8.736;2023-07-24T00:03:29;10.00;;;5.18;;
10458;SDS011;5277;48.722;8.736;2023-07-24T00:05:57;7.45;;;5.35;;
10458;SDS011;5277;48.722;8.736;2023-07-24T00:08:24;8.38;;;5.70;;
10458;SDS011;5277;48.722;8.736;2023-07-24T00:10:50;9.90;;;5.93;;
10458;SDS011;5277;48.722;8.736;2023-07-24T00:13:15;7.93;;;5.30;;
10458;SDS011;5277;48.722;8.736;2023-07-24T00:15:41;8.98;;;5.90;;
10458;SDS011;5277;48.722;8.736;2023-07-24T00:18:06;8.98;;;5.78;;
10458;SDS011;5277;48.722;8.736;2023-07-24T00:20:32;8.88;;;5.53;;
10458;SDS011;5277;48.722;8.736;2023-07-24T00:22:57;11.88;;;5.88;;
10458;SDS011;5277;48.722;8.736;2023-07-24T00:25:23;7.80;;;5.35;;
10458;SDS011;5277;48.722;8.736;2023-07-24T00:27:48;8.88;;;5.90;;
10458;SDS011;5277;48.722;8.736;2023-07-24T00:30:14;9.80;;;5.28;;
10458;SDS011;5277;48.722;8.736;2023-07-24T00:32:40;10.25;;;5.97;;
10458;SDS011;5277;48.722;8.736;2023-07-24T00:35:06;8.27;;;5.75;;
10458;SDS011;5277;48.722;8.736;2023-07-24T00:37:32;10.52;;;5.88;;
10458;SDS011;5277;48.722;8.736;2023-07-24T00:39:57;8.38;;;5.65;;
10458;SDS011;5277;48.722;8.736;2023-07-24T00:42:23;7.78;;;5.45;;
10458;SDS011;5277;48.722;8.736;2023-07-24T00:44:49;8.20;;;5.50;;
10458;SDS011;5277;48.722;8.736;2023-07-24T00:47:14;7.78;;;5.30;;
10458;SDS011;5277;48.722;8.736;2023-07-24T00:49:40;9.57;;;5.88;;
10458;SDS011;5277;48.722;8.736;2023-07-24T00:52:09;9.10;;;5.80;;
10458;SDS011;5277;48.722;8.736;2023-07-24T00:55:01;9.05;;;5.40;;
10458;SDS011;5277;48.722;8.736;2023-07-24T00:57:53;7.63;;;5.40;;
10458;SDS011;5277;48.722;8.736;2023-07-24T01:00:42;10.05;;;5.93;;
10458;SDS011;5277;48.722;8.736;2023-07-24T01:03:16;8.07;;;4.90;;
10458;SDS011;5277;48.722;8.736;2023-07-24T01:06:07;7.65;;;5.38;;
10458;SDS011;5277;48.722;8.736;2023-07-24T01:08:39;7.70;;;5.25;;
10458;SDS011;5277;48.722;8.736;2023-07-24T01:11:47;8.13;;;5.80;;
10458;SDS011;5277;48.722;8.736;2023-07-24T01:14:58;7.88;;;5.40;;
10458;SDS011;5277;48.722;8.736;2023-07-24T01:17:34;7.85;;;5.22;;
10458;SDS011;5277;48.722;8.736;2023-07-24T01:26:22;7.63;;;5.70;;
10458;SDS011;5277;48.722;8.736;2023-07-24T01:28:54;9.00;;;5.82;;
10458;SDS011;5277;48.722;8.736;2023-07-24T01:31:23;7.00;;;5.10;;
10458;SDS011;5277;48.722;8.736;2023-07-24T01:34:12;11.63;;;5.72;;
10458;SDS011;5277;48.722;8.736;2023-07-24T01:36:53;8.85;;;5.55;;
10458;SDS011;5277;48.722;8.736;2023-07-24T01:39:34;8.55;;;5.57;;
10458;SDS011;5277;48.722;8.736;2023-07-24T01:42:16;9.35;;;5.90;;
10458;SDS011;5277;48.722;8.736;2023-07-24T01:44:53;9.00;;;5.65;;
10458;SDS011;5277;48.722;8.736;2023-07-24T01:47:38;8.65;;;5.63;;
10458;SDS011;5277;48.722;8.736;2023-07-24T01:50:28;9.43;;;5.55;;
10458;SDS011;5277;48.722;8.736;2023-07-24T01:56:07;7.45;;;5.28;;
10458;SDS011;5277;48.722;8.736;2023-07-24T01:58:41;9.00;;;6.10;;
10458;SDS011;5277;48.722;8.736;2023-07-24T02:01:13;9.80;;;5.78;;
10458;SDS011;5277;48.722;8.736;2023-07-24T02:03:46;9.25;;;5.40;;
10458;SDS011;5277;48.722;8.736;2023-07-24T02:06:14;11.30;;;6.47;;
10458;SDS011;5277;48.722;8.736;2023-07-24T02:08:45;7.57;;;5.10;;
10458;SDS011;5277;48.722;8.736;2023-07-24T02:11:23;8.30;;;5.63;;
10458;SDS011;5277;48.722;8.736;2023-07-24T02:13:59;8.48;;;5.53;;
10458;SDS011;5277;48.722;8.736;2023-07-24T02:16:48;7.60;;;5.40;;
10458;SDS011;5277;48.722;8.736;2023-07-24T02:19:43;9.02;;;5.75;;
10458;SDS011;5277;48.722;8.736;2023-07-24T02:22:45;9.07;;;5.45;;
10458;SDS011;5277;48.722;8.736;2023-07-24T02:28:03;9.40;;;5.82;;
10458;SDS011;5277;48.722;8.736;2023-07-24T02:30:34;8.95;;;5.57;;
10458;SDS011;5277;48.722;8.736;2023-07-24T02:33:19;8.55;;;5.40;;
10458;SDS011;5277;48.722;8.736;2023-07-24T02:35:57;8.52;;;5.72;;
10458;SDS011;5277;48.722;8.736;2023-07-24T02:38:33;10.02;;;5.88;;
10458;SDS011;5277;48.722;8.736;2023-07-24T02:41:27;10.48;;;5.75;;
10458;SDS011;5277;48.722;8.736;2023-07-24T02:44:27;10.68;;;5.38;;
10458;SDS011;5277;48.722;8.736;2023-07-24T02:47:25;8.05;;;5.43;;
10458;SDS011;5277;48.722;8.736;2023-07-24T02:49:51;9.13;;;5.75;;
10458;SDS011;5277;48.722;8.736;2023-07-24T02:52:45;10.48;;;5.60;;
10458;SDS011;5277;48.722;8.736;2023-07-24T02:55:37;9.07;;;5.75;;
10458;SDS011;5277;48.722;8.736;2023-07-24T03:01:02;7.80;;;5.72;;
10458;SDS011;5277;48.722;8.736;2023-07-24T03:03:39;10.32;;;5.88;;
10458;SDS011;5277;48.722;8.736;2023-07-24T03:06:19;9.80;;;5.97;;
10458;SDS011;5277;48.722;8.736;2023-07-24T03:08:53;7.20;;;5.07;;
10458;SDS011;5277;48.722;8.736;2023-07-24T03:11:21;9.15;;;5.65;;
10458;SDS011;5277;48.722;8.736;2023-07-24T03:14:13;8.00;;;5.20;;
10458;SDS011;5277;48.722;8.736;2023-07-24T03:17:21;9.20;;;5.57;;
10458;SDS011;5277;48.722;8.736;2023-07-24T03:20:07;7.07;;;4.80;;
10458;SDS011;5277;48.722;8.736;2023-07-24T03:22:37;7.97;;;5.53;;
10458;SDS011;5277;48.722;8.736;2023-07-24T03:25:29;9.25;;;5.90;;
10458;SDS011;5277;48.722;8.736;2023-07-24T03:28:08;8.55;;;5.40;;
10458;SDS011;5277;48.722;8.736;2023-07-24T03:30:39;9.32;;;5.57;;
10458;SDS011;5277;48.722;8.736;2023-07-24T03:33:33;9.05;;;5.72;;
10458;SDS011;5277;48.722;8.736;2023-07-24T03:36:10;9.38;;;5.70;;
10458;SDS011;5277;48.722;8.736;2023-07-24T03:38:44;8.48;;;5.53;;
10458;SDS011;5277;48.722;8.736;2023-07-24T03:41:33;8.70;;;5.60;;
10458;SDS011;5277;48.722;8.736;2023-07-24T03:44:08;8.30;;;5.20;;
10458;SDS011;5277;48.722;8.736;2023-07-24T03:46:37;9.57;;;5.68;;
10458;SDS011;5277;48.722;8.736;2023-07-24T03:49:11;7.68;;;5.45;;
10458;SDS011;5277;48.722;8.736;2023-07-24T03:51:50;7.53;;;5.53;;
10458;SDS011;5277;48.722;8.736;2023-07-24T03:54:19;8.50;;;5.30;;
10458;SDS011;5277;48.722;8.736;2023-07-24T03:57:03;7.82;;;5.25;;
10458;SDS011;5277;48.722;8.736;2023-07-24T03:59:37;7.97;;;5.85;;
10458;SDS011;5277;48.722;8.736;2023-07-24T04:02:03;9.75;;;5.70;;
10458;SDS011;5277;48.722;8.736;2023-07-24T04:04:55;7.93;;;5.20;;
10458;SDS011;5277;48.722;8.736;2023-07-24T04:07:26;8.98;;;5.90;;
10458;SDS011;5277;48.722;8.736;2023-07-24T04:09:57;7.90;;;5.22;;
10458;SDS011;5277;48.722;8.736;2023-07-24T04:12:30;8.50;;;5.47;;
10458;SDS011;5277;48.722;8.736;2023-07-24T04:14:58;7.57;;;5.68;;
10458;SDS011;5277;48.722;8.736;2023-07-24T04:17:33;10.30;;;5.78;;
10458;SDS011;5277;48.722;8.736;2023-07-24T04:20:03;8.70;;;5.32;;
10458;SDS011;5277;48.722;8.736;2023-07-24T04:22:34;8.05;;;5.43;;
10458;SDS011;5277;48.722;8.736;2023-07-24T04:25:11;9.27;;;5.68;;
10458;SDS011;5277;48.722;8.736;2023-07-24T04:27:40;11.75;;;5.63;;
10458;SDS011;5277;48.722;8.736;2023-07-24T04:30:21;7.95;;;5.38;;
10458;SDS011;5277;48.722;8.736;2023-07-24T04:32:53;9.68;;;6.28;;
10458;SDS011;5277;48.722;8.736;2023-07-24T04:35:31;9.38;;;5.50;;
10458;SDS011;5277;48.722;8.736;2023-07-24T04:38:02;8.43;;;5.78;;
10458;SDS011;5277;48.722;8.736;2023-07-24T04:40:38;9.68;;;6.68;;
10458;SDS011;5277;48.722;8.736;2023-07-24T04:43:24;7.72;;;5.40;;
10458;SDS011;5277;48.722;8.736;2023-07-24T04:45:49;9.02;;;5.32;;
10458;SDS011;5277;48.722;8.736;2023-07-24T04:48:22;9.50;;;5.65;;
10458;SDS011;5277;48.722;8.736;2023-07-24T04:50:54;8.68;;;5.88;;
10458;SDS011;5277;48.722;8.736;2023-07-24T04:53:38;9.48;;;5.95;;
10458;SDS011;5277;48.722;8.736;2023-07-24T04:56:10;11.38;;;5.90;;
10458;SDS011;5277;48.722;8.736;2023-07-24T04:58:39;10.23;;;5.78;;
10458;SDS011;5277;48.722;8.736;2023-07-24T05:01:15;9.05;;;5.55;;
10458;SDS011;5277;48.722;8.736;2023-07-24T05:03:50;9.20;;;5.93;;
10458;SDS011;5277;48.722;8.736;2023-07-24T05:06:18;9.73;;;5.82;;
10458;SDS011;5277;48.722;8.736;2023-07-24T05:08:53;8.00;;;5.80;;
10458;SDS011;5277;48.722;8.736;2023-07-24T05:11:30;8.63;;;5.65;;
10458;SDS011;5277;48.722;8.736;2023-07-24T05:14:07;10.45;;;6.10;;
10458;SDS011;5277;48.722;8.736;2023-07-24T05:19:22;10.55;;;5.53;;
10458;SDS011;5277;48.722;8.736;2023-07-24T05:21:48;9.23;;;6.18;;
10458;SDS011;5277;48.722;8.736;2023-07-24T05:24:19;8.57;;;6.05;;
10458;SDS011;5277;48.722;8.736;2023-07-24T05:27:00;9.05;;;5.97;;
10458;SDS011;5277;48.722;8.736;2023-07-24T05:32:35;8.02;;;5.25;;
10458;SDS011;5277;48.722;8.736;2023-07-24T05:38:18;12.93;;;5.85;;
10458;SDS011;5277;48.722;8.736;2023-07-24T05:40:53;8.32;;;5.88;;
10458;SDS011;5277;48.722;8.736;2023-07-24T05:43:42;9.18;;;5.90;;
10458;SDS011;5277;48.722;8.736;2023-07-24T05:46:15;8.70;;;5.72;;
10458;SDS011;5277;48.722;8.736;2023-07-24T05:48:47;9.20;;;5.65;;
10458;SDS011;5277;48.722;8.736;2023-07-24T05:51:18;10.13;;;6.18;;
10458;SDS011;5277;48.722;8.736;2023-07-24T05:53:55;9.70;;;5.70;;
10458;SDS011;5277;48.722;8.736;2023-07-24T06:01:43;11.98;;;7.35;;
10458;SDS011;5277;48.722;8.736;2023-07-24T06:04:15;8.43;;;6.25;;
10458;SDS011;5277;48.722;8.736;2023-07-24T06:06:44;9.90;;;6.93;;
10458;SDS011;5277;48.722;8.736;2023-07-24T06:12:30;10.25;;;6.45;;
10458;SDS011;5277;48.722;8.736;2023-07-24T06:15:02;9.55;;;5.53;;
10458;SDS011;5277;48.722;8.736;2023-07-24T06:17:37;9.13;;;6.03;;
10458;SDS011;5277;48.722;8.736;2023-07-24T06:20:06;9.60;;;5.80;;
10458;SDS011;5277;48.722;8.736;2023-07-24T06:25:33;8.27;;;5.70;;
10458;SDS011;5277;48.722;8.736;2023-07-24T06:28:02;9.77;;;6.03;;
10458;SDS011;5277;48.722;8.736;2023-07-24T06:30:39;9.65;;;6.05;;
10458;SDS011;5277;48.722;8.736;2023-07-24T06:33:12;8.95;;;5.85;;
10458;SDS011;5277;48.722;8.736;2023-07-24T06:35:40;8.80;;;6.38;;
10458;SDS011;5277;48.722;8.736;2023-07-24T06:38:16;11.10;;;6.35;;
10458;SDS011;5277;48.722;8.736;2023-07-24T06:40:49;8.32;;;5.50;;
10458;SDS011;5277;48.722;8.736;2023-07-24T06:43:30;8.13;;;5.93;;
10458;SDS011;5277;48.722;8.736;2023-07-24T06:45:59;8.20;;;5.75;;
10458;SDS011;5277;48.722;8.736;2023-07-24T06:48:29;9.05;;;6.32;;
10458;SDS011;5277;48.722;8.736;2023-07-24T06:50:58;9.48;;;6.20;;
10458;SDS011;5277;48.722;8.736;2023-07-24T06:53:35;12.57;;;6.60;;
10458;SDS011;5277;48.722;8.736;2023-07-24T06:56:07;11.48;;;6.20;;
10458;SDS011;5277;48.722;8.736;2023-07-24T06:58:33;9.45;;;6.43;;
10458;SDS011;5277;48.722;8.736;2023-07-24T07:01:21;9.55;;;6.32;;
10458;SDS011;5277;48.722;8.736;2023-07-24T07:04:02;8.05;;;5.82;;
10458;SDS011;5277;48.722;8.736;2023-07-24T07:06:40;9.75;;;6.35;;
10458;SDS011;5277;48.722;8.736;2023-07-24T07:09:37;9.10;;;5.60;;
10458;SDS011;5277;48.722;8.736;2023-07-24T07:12:18;9.25;;;6.05;;
10458;SDS011;5277;48.722;8.736;2023-07-24T07:14:52;10.23;;;6.85;;
10458;SDS011;5277;48.722;8.736;2023-07-24T07:17:28;8.77;;;5.95;;
10458;SDS011;5277;48.722;8.736;2023-07-24T07:20:13;10.82;;;6.85;;
10458;SDS011;5277;48.722;8.736;2023-07-24T07:22:56;9.43;;;5.97;;
10458;SDS011;5277;48.722;8.736;2023-07-24T07:25:36;9.48;;;5.88;;
10458;SDS011;5277;48.722;8.736;2023-07-24T07:28:15;10.55;;;6.50;;
10458;SDS011;5277;48.722;8.736;2023-07-24T07:30:43;7.65;;;5.70;;
10458;SDS011;5277;48.722;8.736;2023-07-24T07:33:13;9.88;;;6.53;;
10458;SDS011;5277;48.722;8.736;2023-07-24T07:35:50;10.02;;;5.95;;
10458;SDS011;5277;48.722;8.736;2023-07-24T07:38:25;9.68;;;5.78;;
10458;SDS011;5277;48.722;8.736;2023-07-24T07:41:16;10.10;;;6.47;;
10458;SDS011;5277;48.722;8.736;2023-07-24T07:44:08;9.90;;;6.53;;
10458;SDS011;5277;48.722;8.736;2023-07-24T07:46:48;10.02;;;6.03;;
10458;SDS011;5277;48.722;8.736;2023-07-24T07:49:22;9.25;;;6.38;;
10458;SDS011;5277;48.722;8.736;2023-07-24T07:52:01;9.73;;;6.00;;
10458;SDS011;5277;48.722;8.736;2023-07-24T07:54:33;10.02;;;6.22;;
10458;SDS011;5277;48.722;8.736;2023-07-24T07:56:59;12.60;;;6.47;;
10458;SDS011;5277;48.722;8.736;2023-07-24T07:59:50;9.48;;;6.90;;
10458;SDS011;5277;48.722;8.736;2023-07-24T08:02:18;11.13;;;6.90;;
10458;SDS011;5277;48.722;8.736;2023-07-24T08:05:02;10.52;;;6.18;;
10458;SDS011;5277;48.722;8.736;2023-07-24T08:07:41;12.60;;;6.80;;
10458;SDS011;5277;48.722;8.736;2023-07-24T08:10:09;12.70;;;6.38;;
10458;SDS011;5277;48.722;8.736;2023-07-24T08:12:42;12.73;;;8.52;;
10458;SDS011;5277;48.722;8.736;2023-07-24T08:15:14;14.23;;;7.63;;
10458;SDS011;5277;48.722;8.736;2023-07-24T08:17:44;9.90;;;7.10;;
10458;SDS011;5277;48.722;8.736;2023-07-24T08:20:16;11.70;;;7.10;;
10458;SDS011;5277;48.722;8.736;2023-07-24T08:22:44;13.77;;;6.88;;
10458;SDS011;5277;48.722;8.736;2023-07-24T08:25:13;9.82;;;6.57;;
10458;SDS011;5277;48.722;8.736;2023-07-24T08:27:54;11.60;;;7.10;;
10458;SDS011;5277;48.722;8.736;2023-07-24T08:30:35;10.73;;;7.50;;
10458;SDS011;5277;48.722;8.736;2023-07-24T08:33:09;14.80;;;8.10;;
10458;SDS011;5277;48.722;8.736;2023-07-24T08:38:28;11.18;;;8.48;;
10458;SDS011;5277;48.722;8.736;2023-07-24T08:43:39;11.02;;;7.53;;
10458;SDS011;5277;48.722;8.736;2023-07-24T08:46:17;11.65;;;7.07;;
10458;SDS011;5277;48.722;8.736;2023-07-24T08:48:47;13.18;;;7.35;;
10458;SDS011;5277;48.722;8.736;2023-07-24T08:51:21;10.75;;;7.15;;
10458;SDS011;5277;48.722;8.736;2023-07-24T08:53:57;12.75;;;7.05;;
10458;SDS011;5277;48.722;8.736;2023-07-24T08:56:37;11.35;;;6.75;;
10458;SDS011;5277;48.722;8.736;2023-07-24T08:59:05;10.98;;;6.82;;
10458;SDS011;5277;48.722;8.736;2023-07-24T09:02:04;8.55;;;6.22;;
10458;SDS011;5277;48.722;8.736;2023-07-24T09:04:33;9.73;;;6.03;;
10458;SDS011;5277;48.722;8.736;2023-07-24T09:07:01;10.23;;;6.60;;
10458;SDS011;5277;48.722;8.736;2023-07-24T09:09:30;9.38;;;6.20;;
10458;SDS011;5277;48.722;8.736;2023-07-24T09:11:58;10.88;;;6.32;;
10458;SDS011;5277;48.722;8.736;2023-07-24T09:14:31;10.48;;;5.90;;
10458;SDS011;5277;48.722;8.736;2023-07-24T09:17:11;9.68;;;6.50;;
10458;SDS011;5277;48.722;8.736;2023-07-24T09:19:54;11.00;;;6.40;;
10458;SDS011;5277;48.722;8.736;2023-07-24T09:22:31;7.20;;;5.75;;
10458;SDS011;5277;48.722;8.736;2023-07-24T09:24:59;11.48;;;6.32;;
10458;SDS011;5277;48.722;8.736;2023-07-24T09:27:30;7.95;;;5.80;;
10458;SDS011;5277;48.722;8.736;2023-07-24T09:29:58;9.60;;;5.80;;
10458;SDS011;5277;48.722;8.736;2023-07-24T09:32:36;10.50;;;6.40;;
10458;SDS011;5277;48.722;8.736;2023-07-24T09:35:03;10.40;;;6.68;;
10458;SDS011;5277;48.722;8.736;2023-07-24T09:37:31;9.38;;;6.40;;
10458;SDS011;5277;48.722;8.736;2023-07-24T09:40:06;9.13;;;5.93;;
10458;SDS011;5277;48.722;8.736;2023-07-24T09:42:32;11.10;;;6.90;;
10458;SDS011;5277;48.722;8.736;2023-07-24T09:45:02;9.80;;;6.10;;
10458;SDS011;5277;48.722;8.736;2023-07-24T09:47:35;8.88;;;6.10;;
10458;SDS011;5277;48.722;8.736;2023-07-24T09:50:10;9.10;;;5.93;;
10458;SDS011;5277;48.722;8.736;2023-07-24T09:52:36;10.68;;;6.47;;
10458;SDS011;5277;48.722;8.736;2023-07-24T09:55:19;10.02;;;6.50;;
10458;SDS011;5277;48.722;8.736;2023-07-24T09:57:50;9.00;;;5.63;;
10458;SDS011;5277;48.722;8.736;2023-07-24T10:00:18;10.68;;;6.65;;
10458;SDS011;5277;48.722;8.736;2023-07-24T10:02:46;9.52;;;6.10;;
10458;SDS011;5277;48.722;8.736;2023-07-24T10:07:48;11.43;;;6.38;;
10458;SDS011;5277;48.722;8.736;2023-07-24T10:10:19;8.68;;;6.57;;
10458;SDS011;5277;48.722;8.736;2023-07-24T10:12:46;10.50;;;6.28;;
10458;SDS011;5277;48.722;8.736;2023-07-24T10:15:21;8.00;;;5.72;;
10458;SDS011;5277;48.722;8.736;2023-07-24T10:18:00;8.07;;;5.68;;
10458;SDS011;5277;48.722;8.736;2023-07-24T10:20:33;9.52;;;6.20;;
10458;SDS011;5277;48.722;8.736;2023-07-24T10:23:06;10.50;;;6.53;;
10458;SDS011;5277;48.722;8.736;2023-07-24T10:25:37;9.60;;;6.40;;
10458;SDS011;5277;48.722;8.736;2023-07-24T10:28:10;9.52;;;6.50;;
10458;SDS011;5277;48.722;8.736;2023-07-24T10:30:55;10.77;;;6.40;;
10458;SDS011;5277;48.722;8.736;2023-07-24T10:33:22;10.38;;;6.18;;
10458;SDS011;5277;48.722;8.736;2023-07-24T10:36:11;9.23;;;5.80;;
10458;SDS011;5277;48.722;8.736;2023-07-24T10:38:52;9.93;;;6.40;;
10458;SDS011;5277;48.722;8.736;2023-07-24T10:41:46;8.60;;;6.20;;
10458;SDS011;5277;48.722;8.736;2023-07-24T10:44:17;10.18;;;6.75;;
10458;SDS011;5277;48.722;8.736;2023-07-24T10:46:43;9.43;;;6.35;;
10458;SDS011;5277;48.722;8.736;2023-07-24T10:49:09;10.07;;;6.20;;
10458;SDS011;5277;48.722;8.736;2023-07-24T10:51:39;8.75;;;5.78;;
10458;SDS011;5277;48.722;8.736;2023-07-24T10:54:20;13.35;;;6.53;;
10458;SDS011;5277;48.722;8.736;2023-07-24T10:59:44;12.35;;;6.90;;
10458;SDS011;5277;48.722;8.736;2023-07-24T11:02:40;12.73;;;6.43;;
10458;SDS011;5277;48.722;8.736;2023-07-24T11:05:08;10.93;;;6.50;;
10458;SDS011;5277;48.722;8.736;2023-07-24T11:07:46;12.57;;;7.10;;
10458;SDS011;5277;48.722;8.736;2023-07-24T11:10:22;10.60;;;6.78;;
10458;SDS011;5277;48.722;8.736;2023-07-24T11:13:13;9.25;;;6.57;;
10458;SDS011;5277;48.722;8.736;2023-07-24T11:16:25;9.73;;;6.15;;
10458;SDS011;5277;48.722;8.736;2023-07-24T11:19:11;9.90;;;6.18;;
10458;SDS011;5277;48.722;8.736;2023-07-24T11:21:49;9.55;;;6.22;;
10458;SDS011;5277;48.722;8.736;2023-07-24T11:24:28;9.68;;;6.50;;
10458;SDS011;5277;48.722;8.736;2023-07-24T11:26:57;7.95;;;5.82;;
10458;SDS011;5277;48.722;8.736;2023-07-24T11:29:35;7.78;;;6.57;;
10458;SDS011;5277;48.722;8.736;2023-07-24T11:32:39;9.90;;;6.05;;
10458;SDS011;5277;48.722;8.736;2023-07-24T11:35:11;7.72;;;5.50;;
10458;SDS011;5277;48.722;8.736;2023-07-24T11:37:38;6.30;;;5.13;;
10458;SDS011;5277;48.722;8.736;2023-07-24T11:40:17;8.48;;;5.28;;
10458;SDS011;5277;48.722;8.736;2023-07-24T11:43:04;6.70;;;4.97;;
10458;SDS011;5277;48.722;8.736;2023-07-24T11:46:07;8.40;;;5.20;;
10458;SDS011;5277;48.722;8.736;2023-07-24T11:48:40;7.03;;;5.10;;
10458;SDS011;5277;48.722;8.736;2023-07-24T11:51:17;10.50;;;5.40;;
10458;SDS011;5277;48.722;8.736;2023-07-24T11:53:52;8.15;;;5.07;;
10458;SDS011;5277;48.722;8.736;2023-07-24T11:56:39;5.82;;;4.38;;
10458;SDS011;5277;48.722;8.736;2023-07-24T11:59:14;9.13;;;4.97;;
10458;SDS011;5277;48.722;8.736;2023-07-24T12:01:46;7.45;;;4.97;;
10458;SDS011;5277;48.722;8.736;2023-07-24T12:04:23;8.70;;;5.40;;
10458;SDS011;5277;48.722;8.736;2023-07-24T12:06:58;6.40;;;4.53;;
10458;SDS011;5277;48.722;8.736;2023-07-24T12:09:32;7.32;;;4.63;;
10458;SDS011;5277;48.722;8.736;2023-07-24T12:12:02;9.90;;;5.35;;
10458;SDS011;5277;48.722;8.736;2023-07-24T12:14:45;6.97;;;4.53;;
10458;SDS011;5277;48.722;8.736;2023-07-24T12:17:20;8.75;;;4.63;;
10458;SDS011;5277;48.722;8.736;2023-07-24T12:19:49;9.07;;;5.10;;
10458;SDS011;5277;48.722;8.736;2023-07-24T12:22:20;6.88;;;4.82;;
10458;SDS011;5277;48.722;8.736;2023-07-24T12:24:53;8.07;;;4.68;;
10458;SDS011;5277;48.722;8.736;2023-07-24T12:27:27;6.47;;;4.93;;
10458;SDS011;5277;48.722;8.736;2023-07-24T12:29:58;5.93;;;4.65;;
10458;SDS011;5277;48.722;8.736;2023-07-24T12:32:24;5.47;;;4.30;;
10458;SDS011;5277;48.722;8.736;2023-07-24T12:34:59;5.45;;;4.20;;
10458;SDS011;5277;48.722;8.736;2023-07-24T12:37:39;5.20;;;4.07;;
10458;SDS011;5277;48.722;8.736;2023-07-24T12:40:11;5.78;;;4.53;;
10458;SDS011;5277;48.722;8.736;2023-07-24T12:42:40;5.63;;;4.22;;
10458;SDS011;5277;48.722;8.736;2023-07-24T12:45:11;5.20;;;4.13;;
10458;SDS011;5277;48.722;8.736;2023-07-24T12:47:57;6.25;;;4.43;;
10458;SDS011;5277;48.722;8.736;2023-07-24T12:50:23;8.30;;;4.63;;
10458;SDS011;5277;48.722;8.736;2023-07-24T12:52:49;6.85;;;4.15;;
10458;SDS011;5277;48.722;8.736;2023-07-24T12:55:26;5.70;;;4.10;;
10458;SDS011;5277;48.722;8.736;2023-07-24T12:57:54;5.88;;;3.88;;
10458;SDS011;5277;48.722;8.736;2023-07-24T13:00:30;5.82;;;4.13;;
10458;SDS011;5277;48.722;8.736;2023-07-24T13:02:56;7.35;;;3.97;;
10458;SDS011;5277;48.722;8.736;2023-07-24T13:05:32;5.90;;;3.75;;
10458;SDS011;5277;48.722;8.736;2023-07-24T13:08:03;7.00;;;3.97;;
10458;SDS011;5277;48.722;8.736;2023-07-24T13:10:34;4.82;;;3.72;;
10458;SDS011;5277;48.722;8.736;2023-07-24T13:13:05;5.13;;;3.50;;
10458;SDS011;5277;48.722;8.736;2023-07-24T13:15:36;6.07;;;4.13;;
10458;SDS011;5277;48.722;8.736;2023-07-24T13:18:07;6.15;;;3.70;;
10458;SDS011;5277;48.722;8.736;2023-07-24T13:20:47;9.82;;;4.53;;
10458;SDS011;5277;48.722;8.736;2023-07-24T13:23:15;7.00;;;4.28;;
10458;SDS011;5277;48.722;8.736;2023-07-24T13:25:46;5.82;;;4.35;;
10458;SDS011;5277;48.722;8.736;2023-07-24T13:28:18;4.75;;;3.85;;
10458;SDS011;5277;48.722;8.736;2023-07-24T13:30:46;5.63;;;4.22;;
10458;SDS011;5277;48.722;8.736;2023-07-24T13:33:12;6.40;;;4.43;;
10458;SDS011;5277;48.722;8.736;2023-07-24T13:35:52;6.75;;;4.13;;
10458;SDS011;5277;48.722;8.736;2023-07-24T13:38:20;6.50;;;4.15;;
10458;SDS011;5277;48.722;8.736;2023-07-24T13:41:17;6.55;;;4.18;;
10458;SDS011;5277;48.722;8.736;2023-07-24T13:43:51;5.43;;;3.90;;
10458;SDS011;5277;48.722;8.736;2023-07-24T13:46:17;6.88;;;3.90;;
10458;SDS011;5277;48.722;8.736;2023-07-24T13:48:51;5.50;;;3.97;;
10458;SDS011;5277;48.722;8.736;2023-07-24T13:51:30;5.03;;;3.58;;
10458;SDS011;5277;48.722;8.736;2023-07-24T13:54:03;6.05;;;4.32;;
10458;SDS011;5277;48.722;8.736;2023-07-24T13:56:31;5.35;;;4.03;;
10458;SDS011;5277;48.722;8.736;2023-07-24T13:59:09;5.63;;;4.00;;
10458;SDS011;5277;48.722;8.736;2023-07-24T14:01:48;5.68;;;4.30;;
10458;SDS011;5277;48.722;8.736;2023-07-24T14:04:23;5.45;;;3.80;;
10458;SDS011;5277;48.722;8.736;2023-07-24T14:06:51;7.60;;;4.18;;
10458;SDS011;5277;48.722;8.736;2023-07-24T14:09:19;5.50;;;3.70;;
10458;SDS011;5277;48.722;8.736;2023-07-24T14:12:06;5.72;;;3.85;;
10458;SDS011;5277;48.722;8.736;2023-07-24T14:14:45;6.57;;;4.40;;
10458;SDS011;5277;48.722;8.736;2023-07-24T14:17:24;4.18;;;3.40;;
10458;SDS011;5277;48.722;8.736;2023-07-24T14:20:00;5.00;;;3.78;;
10458;SDS011;5277;48.722;8.736;2023-07-24T14:22:36;4.53;;;3.42;;
10458;SDS011;5277;48.722;8.736;2023-07-24T14:25:16;5.32;;;3.60;;
10458;SDS011;5277;48.722;8.736;2023-07-24T14:27:42;4.72;;;3.58;;
10458;SDS011;5277;48.722;8.736;2023-07-24T14:30:19;6.00;;;3.28;;
10458;SDS011;5277;48.722;8.736;2023-07-24T14:32:48;5.10;;;3.53;;
10458;SDS011;5277;48.722;8.736;2023-07-24T14:35:15;4.07;;;3.67;;
10458;SDS011;5277;48.722;8.736;2023-07-24T14:37:46;4.88;;;3.42;;
10458;SDS011;5277;48.722;8.736;2023-07-24T14:40:17;5.03;;;3.40;;
10458;SDS011;5277;48.722;8.736;2023-07-24T14:42:52;4.25;;;3.20;;
10458;SDS011;5277;48.722;8.736;2023-07-24T14:45:29;5.75;;;3.05;;
10458;SDS011;5277;48.722;8.736;2023-07-24T14:47:57;5.50;;;3.40;;
10458;SDS011;5277;48.722;8.736;2023-07-24T14:50:23;4.03;;;3.10;;
10458;SDS011;5277;48.722;8.736;2023-07-24T14:53:03;4.82;;;3.45;;
10458;SDS011;5277;48.722;8.736;2023-07-24T14:55:39;3.67;;;2.75;;
10458;SDS011;5277;48.722;8.736;2023-07-24T14:58:05;6.20;;;3.40;;
10458;SDS011;5277;48.722;8.736;2023-07-24T15:00:33;4.55;;;3.15;;
10458;SDS011;5277;48.722;8.736;2023-07-24T15:03:01;3.67;;;3.00;;
10458;SDS011;5277;48.722;8.736;2023-07-24T15:05:36;3.75;;;3.15;;
10458;SDS011;5277;48.722;8.736;2023-07-24T15:08:04;4.55;;;3.33;;
10458;SDS011;5277;48.722;8.736;2023-07-24T15:10:34;4.40;;;2.92;;
10458;SDS011;5277;48.722;8.736;2023-07-24T15:13:10;4.63;;;3.30;;
10458;SDS011;5277;48.722;8.736;2023-07-24T15:15:42;4.00;;;2.80;;
10458;SDS011;5277;48.722;8.736;2023-07-24T15:18:09;3.53;;;2.90;;
10458;SDS011;5277;48.722;8.736;2023-07-24T15:20:35;4.93;;;2.88;;
10458;SDS011;5277;48.722;8.736;2023-07-24T15:23:01;4.28;;;3.00;;
10458;SDS011;5277;48.722;8.736;2023-07-24T15:25:27;5.88;;;3.22;;
10458;SDS011;5277;48.722;8.736;2023-07-24T15:27:53;4.10;;;3.17;;
10458;SDS011;5277;48.722;8.736;2023-07-24T15:30:21;4.53;;;2.78;;
10458;SDS011;5277;48.722;8.736;2023-07-24T15:32:46;4.20;;;3.00;;
10458;SDS011;5277;48.722;8.736;2023-07-24T15:35:12;5.43;;;3.05;;
10458;SDS011;5277;48.722;8.736;2023-07-24T15:37:38;4.80;;;3.15;;
10458;SDS011;5277;48.722;8.736;2023-07-24T15:40:03;7.72;;;4.30;;
10458;SDS011;5277;48.722;8.736;2023-07-24T15:42:32;4.78;;;3.20;;
10458;SDS011;5277;48.722;8.736;2023-07-24T15:45:07;4.72;;;3.20;;
10458;SDS011;5277;48.722;8.736;2023-07-24T15:47:35;4.22;;;3.25;;
10458;SDS011;5277;48.722;8.736;2023-07-24T15:50:04;3.80;;;2.97;;
10458;SDS011;5277;48.722;8.736;2023-07-24T15:52:33;4.00;;;3.00;;
10458;SDS011;5277;48.722;8.736;2023-07-24T15:55:04;4.00;;;2.92;;
10458;SDS011;5277;48.722;8.736;2023-07-24T15:57:30;4.13;;;2.88;;
10458;SDS011;5277;48.722;8.736;2023-07-24T15:59:56;4.55;;;3.33;;
10458;SDS011;5277;48.722;8.736;2023-07-24T16:02:21;4.90;;;3.67;;
10458;SDS011;5277;48.722;8.736;2023-07-24T16:04:49;5.95;;;2.97;;
10458;SDS011;5277;48.722;8.736;2023-07-24T16:07:21;4.78;;;3.30;;
10458;SDS011;5277;48.722;8.736;2023-07-24T16:09:56;5.00;;;3.53;;
10458;SDS011;5277;48.722;8.736;2023-07-24T16:12:28;5.20;;;3.80;;
10458;SDS011;5277;48.722;8.736;2023-07-24T16:14:54;5.88;;;3.22;;
10458;SDS011;5277;48.722;8.736;2023-07-24T16:17:23;8.18;;;3.45;;
10458;SDS011;5277;48.722;8.736;2023-07-24T16:19:57;3.75;;;3.03;;
10458;SDS011;5277;48.722;8.736;2023-07-24T16:22:32;4.80;;;3.30;;
10458;SDS011;5277;48.722;8.736;2023-07-24T16:25:00;5.38;;;3.25;;
10458;SDS011;5277;48.722;8.736;2023-07-24T16:27:30;5.97;;;3.13;;
10458;SDS011;5277;48.722;8.736;2023-07-24T16:29:56;6.68;;;3.45;;